createdAt,value
2017-10-26T00:00:02.705Z,791.15
2017-10-26T00:00:06.799Z,791.17
2017-10-26T00:00:11.026Z,791.18
2017-10-26T00:00:15.127Z,791.15
2017-10-26T00:00:19.480Z,791.13
2017-10-26T00:00:23.556Z,791.11
2017-10-26T00:00:27.774Z,791.15
2017-10-26T00:00:31.726Z,791.19
2017-10-26T00:00:35.812Z,791.14
2017-10-26T00:00:39.894Z,791.15
2017-10-26T00:00:44.108Z,791.16
2017-10-26T00:00:47.792Z,791.13
2017-10-26T00:00:51.743Z,791.14
2017-10-26T00:00:55.979Z,791.16
2017-10-26T00:01:00.190Z,791.18
2017-10-26T00:01:04.311Z,791.13
2017-10-26T00:01:08.662Z,791.17
2017-10-26T00:01:13.008Z,791.13
2017-10-26T00:01:17.489Z,791.16
2017-10-26T00:01:21.701Z,791.17
2017-10-26T00:01:25.791Z,791.15
2017-10-26T00:01:30.000Z,791.15
2017-10-26T00:01:33.824Z,791.12
2017-10-26T00:01:38.039Z,791.18
2017-10-26T00:01:41.863Z,791.12
2017-10-26T00:01:45.805Z,791.12
2017-10-26T00:01:49.893Z,791.17
2017-10-26T00:01:53.841Z,791.11
2017-10-26T00:01:58.062Z,791.1
2017-10-26T00:02:02.153Z,791.1
2017-10-26T00:02:06.376Z,791.14
2017-10-26T00:02:10.590Z,791.12
2017-10-26T00:02:14.943Z,791.09
2017-10-26T00:02:19.286Z,791.09
2017-10-26T00:02:23.496Z,791.12
2017-10-26T00:02:27.718Z,791.13
2017-10-26T00:02:31.793Z,791.14
2017-10-26T00:02:36.005Z,791.13
2017-10-26T00:02:40.494Z,791.11
2017-10-26T00:02:44.704Z,791.14
2017-10-26T00:02:48.527Z,791.09
2017-10-26T00:02:52.880Z,791.13
2017-10-26T00:02:57.230Z,791.18
2017-10-26T00:03:01.179Z,791.16
2017-10-26T00:03:05.481Z,791.17
2017-10-26T00:03:09.690Z,791.15
2017-10-26T00:03:13.898Z,791.15
2017-10-26T00:03:18.128Z,791.15
2017-10-26T00:03:22.346Z,791.14
2017-10-26T00:03:26.302Z,791.17
2017-10-26T00:03:30.385Z,791.16
2017-10-26T00:03:34.609Z,791.14
2017-10-26T00:03:38.702Z,791.17
2017-10-26T00:03:42.647Z,791.17
2017-10-26T00:03:47.007Z,791.16
2017-10-26T00:03:51.478Z,791.1
2017-10-26T00:03:55.555Z,791.1
2017-10-26T00:03:59.644Z,791.14
2017-10-26T00:04:04.042Z,791.13
2017-10-26T00:04:08.395Z,791.12
2017-10-26T00:04:12.344Z,791.13
2017-10-26T00:04:16.565Z,791.14
2017-10-26T00:04:20.768Z,791.15
2017-10-26T00:04:24.857Z,791.17
2017-10-26T00:04:29.135Z,791.15
2017-10-26T00:04:33.080Z,791.16
2017-10-26T00:04:37.291Z,791.16
2017-10-26T00:04:41.378Z,791.14
2017-10-26T00:04:45.198Z,791.12
2017-10-26T00:04:49.555Z,791.16
2017-10-26T00:04:53.639Z,791.15
2017-10-26T00:04:57.719Z,791.17
2017-10-26T00:05:02.195Z,791.13
2017-10-26T00:05:06.154Z,791.12
2017-10-26T00:05:10.254Z,791.13
2017-10-26T00:05:14.207Z,791.15
2017-10-26T00:05:18.157Z,791.17
2017-10-26T00:05:22.242Z,791.13
2017-10-26T00:05:26.205Z,791.2
2017-10-26T00:05:30.426Z,791.17
2017-10-26T00:05:34.670Z,791.13
2017-10-26T00:05:39.038Z,791.18
2017-10-26T00:05:43.262Z,791.15
2017-10-26T00:05:47.075Z,791.15
2017-10-26T00:05:51.153Z,791.18
2017-10-26T00:05:55.369Z,791.18
2017-10-26T00:05:59.186Z,791.16
2017-10-26T00:06:03.385Z,791.16
2017-10-26T00:06:07.335Z,791.15
2017-10-26T00:06:11.816Z,791.2
2017-10-26T00:06:16.298Z,791.19
2017-10-26T00:06:20.650Z,791.18
2017-10-26T00:06:24.864Z,791.19
2017-10-26T00:06:29.081Z,791.16
2017-10-26T00:06:33.430Z,791.17
2017-10-26T00:06:37.254Z,791.17
2017-10-26T00:06:41.470Z,791.2
2017-10-26T00:06:45.829Z,791.2
2017-10-26T00:06:50.315Z,791.18
2017-10-26T00:06:54.530Z,791.2
2017-10-26T00:06:58.743Z,791.19
2017-10-26T00:07:02.828Z,791.19
2017-10-26T00:07:06.915Z,791.19
2017-10-26T00:07:10.734Z,791.2
2017-10-26T00:07:14.831Z,791.16
2017-10-26T00:07:18.910Z,791.18
2017-10-26T00:07:23.119Z,791.2
2017-10-26T00:07:27.590Z,791.19
2017-10-26T00:07:31.808Z,791.18
2017-10-26T00:07:36.017Z,791.18
2017-10-26T00:07:40.351Z,791.17
2017-10-26T00:07:44.708Z,791.17
2017-10-26T00:07:48.790Z,791.18
2017-10-26T00:07:52.742Z,791.2
2017-10-26T00:07:56.825Z,791.22
2017-10-26T00:08:00.639Z,791.23
2017-10-26T00:08:05.129Z,791.16
2017-10-26T00:08:09.490Z,791.2
2017-10-26T00:08:13.709Z,791.22
2017-10-26T00:08:18.183Z,791.22
2017-10-26T00:08:22.402Z,791.22
2017-10-26T00:08:26.350Z,791.17
2017-10-26T00:08:30.307Z,791.26
2017-10-26T00:08:34.129Z,791.24
2017-10-26T00:08:38.095Z,791.21
2017-10-26T00:08:42.188Z,791.21
2017-10-26T00:08:46.009Z,791.23
2017-10-26T00:08:50.242Z,791.25
2017-10-26T00:08:54.478Z,791.21
2017-10-26T00:08:58.692Z,791.23
2017-10-26T00:09:02.912Z,791.22
2017-10-26T00:09:06.857Z,791.24
2017-10-26T00:09:11.065Z,791.26
2017-10-26T00:09:14.884Z,791.26
2017-10-26T00:09:18.984Z,791.24
2017-10-26T00:09:23.060Z,791.25
2017-10-26T00:09:27.005Z,791.24
2017-10-26T00:09:31.104Z,791.28
2017-10-26T00:09:35.189Z,791.27
2017-10-26T00:09:39.543Z,791.27
2017-10-26T00:09:43.767Z,791.29
2017-10-26T00:09:48.158Z,791.29
2017-10-26T00:09:52.106Z,791.29
2017-10-26T00:09:56.207Z,791.27
2017-10-26T00:10:00.167Z,791.31
2017-10-26T00:10:04.679Z,791.28
2017-10-26T00:10:08.892Z,791.3
2017-10-26T00:10:13.103Z,791.31
2017-10-26T00:10:17.454Z,791.3
2017-10-26T00:10:21.530Z,791.31
2017-10-26T00:10:25.873Z,791.32
2017-10-26T00:10:30.098Z,791.31
2017-10-26T00:10:34.055Z,791.33
2017-10-26T00:10:38.403Z,791.31
2017-10-26T00:10:42.483Z,791.34
2017-10-26T00:10:46.436Z,791.34
2017-10-26T00:10:50.916Z,791.33
2017-10-26T00:10:55.134Z,791.32
2017-10-26T00:10:59.504Z,791.33
2017-10-26T00:11:03.749Z,791.32
2017-10-26T00:11:07.970Z,791.32
2017-10-26T00:11:12.213Z,791.34
2017-10-26T00:11:16.289Z,791.39
2017-10-26T00:11:20.633Z,791.38
2017-10-26T00:11:24.987Z,791.35
2017-10-26T00:11:29.093Z,791.35
2017-10-26T00:11:33.311Z,791.37
2017-10-26T00:11:37.666Z,791.33
2017-10-26T00:11:41.889Z,791.39
2017-10-26T00:11:45.973Z,791.42
2017-10-26T00:11:50.056Z,791.42
2017-10-26T00:11:54.402Z,791.42
2017-10-26T00:11:58.481Z,791.41
2017-10-26T00:12:02.704Z,791.44
2017-10-26T00:12:06.936Z,791.44
2017-10-26T00:12:11.135Z,791.43
2017-10-26T00:12:15.092Z,791.45
2017-10-26T00:12:19.316Z,791.47
2017-10-26T00:12:23.666Z,791.43
2017-10-26T00:12:27.885Z,791.47
2017-10-26T00:12:31.703Z,791.49
2017-10-26T00:12:35.909Z,791.5
2017-10-26T00:12:39.988Z,791.5
2017-10-26T00:12:44.080Z,791.48
2017-10-26T00:12:48.283Z,791.5
2017-10-26T00:12:52.490Z,791.51
2017-10-26T00:12:56.703Z,791.53
2017-10-26T00:13:01.055Z,791.52
2017-10-26T00:13:05.269Z,791.52
2017-10-26T00:13:09.491Z,791.52
2017-10-26T00:13:13.701Z,791.53
2017-10-26T00:13:17.657Z,791.56
2017-10-26T00:13:21.741Z,791.54
2017-10-26T00:13:25.840Z,791.56
2017-10-26T00:13:29.931Z,791.54
2017-10-26T00:13:34.009Z,791.55
2017-10-26T00:13:38.095Z,791.54
2017-10-26T00:13:42.179Z,791.57
2017-10-26T00:13:46.127Z,791.57
2017-10-26T00:13:50.216Z,791.58
2017-10-26T00:13:54.564Z,791.59
2017-10-26T00:13:58.776Z,791.61
2017-10-26T00:14:02.867Z,791.64
2017-10-26T00:14:06.822Z,791.63
2017-10-26T00:14:11.045Z,791.66
2017-10-26T00:14:15.266Z,791.63
2017-10-26T00:14:19.624Z,791.64
2017-10-26T00:14:23.826Z,791.63
2017-10-26T00:14:27.652Z,791.65
2017-10-26T00:14:31.601Z,791.64
2017-10-26T00:14:35.685Z,791.64
2017-10-26T00:14:39.898Z,791.61
2017-10-26T00:14:44.113Z,791.68
2017-10-26T00:14:48.069Z,791.64
2017-10-26T00:14:52.161Z,791.66
2017-10-26T00:14:56.377Z,791.69
2017-10-26T00:15:00.588Z,791.71
2017-10-26T00:15:04.936Z,791.74
2017-10-26T00:15:09.033Z,791.67
2017-10-26T00:15:12.983Z,791.7
2017-10-26T00:15:17.461Z,791.71
2017-10-26T00:15:21.552Z,791.69
2017-10-26T00:15:25.759Z,791.74
2017-10-26T00:15:29.574Z,791.77
2017-10-26T00:15:33.655Z,791.78
2017-10-26T00:15:37.880Z,791.78
2017-10-26T00:15:42.088Z,791.78
2017-10-26T00:15:46.298Z,791.76
2017-10-26T00:15:50.640Z,791.81
2017-10-26T00:15:54.588Z,791.8
2017-10-26T00:15:58.935Z,791.79
2017-10-26T00:16:03.016Z,791.83
2017-10-26T00:16:06.701Z,791.8
2017-10-26T00:16:10.786Z,791.82
2017-10-26T00:16:14.734Z,791.87
2017-10-26T00:16:19.089Z,791.81
2017-10-26T00:16:23.171Z,791.86
2017-10-26T00:16:27.662Z,791.87
2017-10-26T00:16:31.742Z,791.8
2017-10-26T00:16:35.688Z,791.89
2017-10-26T00:16:40.165Z,791.9
2017-10-26T00:16:44.647Z,791.89
2017-10-26T00:16:48.862Z,791.94
2017-10-26T00:16:52.951Z,791.95
2017-10-26T00:16:57.032Z,791.93
2017-10-26T00:17:01.246Z,791.92
2017-10-26T00:17:05.487Z,791.94
2017-10-26T00:17:09.577Z,791.95
2017-10-26T00:17:13.526Z,791.97
2017-10-26T00:17:17.613Z,791.96
2017-10-26T00:17:21.566Z,791.99
2017-10-26T00:17:25.921Z,792.02
2017-10-26T00:17:30.008Z,792.04
2017-10-26T00:17:33.959Z,792.01
2017-10-26T00:17:38.044Z,792.04
2017-10-26T00:17:42.525Z,792.02
2017-10-26T00:17:46.473Z,792.06
2017-10-26T00:17:50.686Z,792.04
2017-10-26T00:17:54.767Z,792.07
2017-10-26T00:17:58.850Z,792.03
2017-10-26T00:18:03.447Z,792.04
2017-10-26T00:18:07.412Z,792.09
2017-10-26T00:18:11.755Z,792.12
2017-10-26T00:18:15.577Z,792.09
2017-10-26T00:18:19.533Z,792.09
2017-10-26T00:18:23.617Z,792.13
2017-10-26T00:18:27.954Z,792.13
2017-10-26T00:18:32.046Z,792.14
2017-10-26T00:18:36.381Z,792.15
2017-10-26T00:18:40.590Z,792.17
2017-10-26T00:18:44.409Z,792.2
2017-10-26T00:18:48.228Z,792.17
2017-10-26T00:18:52.046Z,792.2
2017-10-26T00:18:56.255Z,792.2
2017-10-26T00:19:00.470Z,792.19
2017-10-26T00:19:04.867Z,792.22
2017-10-26T00:19:08.956Z,792.22
2017-10-26T00:19:12.907Z,792.25
2017-10-26T00:19:17.253Z,792.27
2017-10-26T00:19:21.334Z,792.25
2017-10-26T00:19:25.571Z,792.23
2017-10-26T00:19:29.905Z,792.27
2017-10-26T00:19:34.113Z,792.28
2017-10-26T00:19:38.064Z,792.32
2017-10-26T00:19:42.148Z,792.27
2017-10-26T00:19:46.499Z,792.29
2017-10-26T00:19:50.571Z,792.29
2017-10-26T00:19:54.789Z,792.3
2017-10-26T00:19:59.004Z,792.34
2017-10-26T00:20:03.499Z,792.33
2017-10-26T00:20:07.453Z,792.35
2017-10-26T00:20:11.805Z,792.36
2017-10-26T00:20:15.879Z,792.39
2017-10-26T00:20:20.227Z,792.38
2017-10-26T00:20:24.043Z,792.39
2017-10-26T00:20:28.129Z,792.38
2017-10-26T00:20:32.366Z,792.38
2017-10-26T00:20:36.330Z,792.4
2017-10-26T00:20:40.410Z,792.43
2017-10-26T00:20:44.491Z,792.47
2017-10-26T00:20:48.304Z,792.44
2017-10-26T00:20:52.381Z,792.45
2017-10-26T00:20:56.839Z,792.45
2017-10-26T00:21:00.931Z,792.47
2017-10-26T00:21:04.881Z,792.49
2017-10-26T00:21:08.962Z,792.48
2017-10-26T00:21:12.910Z,792.5
2017-10-26T00:21:16.988Z,792.49
2017-10-26T00:21:20.814Z,792.53
2017-10-26T00:21:24.906Z,792.53
2017-10-26T00:21:28.988Z,792.52
2017-10-26T00:21:33.202Z,792.55
2017-10-26T00:21:37.149Z,792.58
2017-10-26T00:21:41.355Z,792.57
2017-10-26T00:21:45.566Z,792.59
2017-10-26T00:21:49.790Z,792.58
2017-10-26T00:21:53.622Z,792.61
2017-10-26T00:21:57.829Z,792.63
2017-10-26T00:22:02.071Z,792.58
2017-10-26T00:22:06.289Z,792.61
2017-10-26T00:22:10.238Z,792.62
2017-10-26T00:22:14.448Z,792.65
2017-10-26T00:22:18.526Z,792.65
2017-10-26T00:22:22.871Z,792.64
2017-10-26T00:22:26.946Z,792.69
2017-10-26T00:22:30.899Z,792.71
2017-10-26T00:22:34.990Z,792.73
2017-10-26T00:22:39.329Z,792.74
2017-10-26T00:22:43.153Z,792.69
2017-10-26T00:22:47.361Z,792.71
2017-10-26T00:22:51.174Z,792.68
2017-10-26T00:22:55.251Z,792.7
2017-10-26T00:22:59.210Z,792.79
2017-10-26T00:23:03.395Z,792.8
2017-10-26T00:23:07.479Z,792.77
2017-10-26T00:23:11.958Z,792.82
2017-10-26T00:23:16.044Z,792.82
2017-10-26T00:23:20.251Z,792.84
2017-10-26T00:23:24.357Z,792.88
2017-10-26T00:23:28.284Z,792.85
2017-10-26T00:23:32.363Z,792.87
2017-10-26T00:23:36.187Z,792.88
2017-10-26T00:23:40.267Z,792.87
2017-10-26T00:23:44.216Z,792.87
2017-10-26T00:23:48.562Z,792.91
2017-10-26T00:23:52.514Z,792.86
2017-10-26T00:23:56.462Z,792.85
2017-10-26T00:24:00.540Z,792.91
2017-10-26T00:24:04.892Z,792.93
2017-10-26T00:24:08.977Z,792.97
2017-10-26T00:24:13.055Z,792.97
2017-10-26T00:24:17.413Z,792.99
2017-10-26T00:24:21.754Z,792.98
2017-10-26T00:24:25.700Z,792.97
2017-10-26T00:24:29.653Z,793.01
2017-10-26T00:24:34.036Z,793.02
2017-10-26T00:24:38.112Z,793.05
2017-10-26T00:24:42.065Z,793.03
2017-10-26T00:24:46.280Z,793.04
2017-10-26T00:24:50.489Z,793.04
2017-10-26T00:24:54.715Z,793.05
2017-10-26T00:24:58.659Z,793.07
2017-10-26T00:25:03.041Z,793.07
2017-10-26T00:25:07.130Z,793.11
2017-10-26T00:25:11.344Z,793.14
2017-10-26T00:25:15.287Z,793.15
2017-10-26T00:25:19.510Z,793.15
2017-10-26T00:25:23.722Z,793.12
2017-10-26T00:25:27.799Z,793.1
2017-10-26T00:25:31.879Z,793.14
2017-10-26T00:25:35.830Z,793.19
2017-10-26T00:25:39.793Z,793.18
2017-10-26T00:25:43.882Z,793.2
2017-10-26T00:25:47.830Z,793.22
2017-10-26T00:25:51.522Z,793.17
2017-10-26T00:25:55.778Z,793.22
2017-10-26T00:25:59.852Z,793.25
2017-10-26T00:26:03.930Z,793.24
2017-10-26T00:26:07.755Z,793.29
2017-10-26T00:26:12.243Z,793.3
2017-10-26T00:26:16.456Z,793.29
2017-10-26T00:26:20.805Z,793.28
2017-10-26T00:26:24.625Z,793.31
2017-10-26T00:26:28.837Z,793.3
2017-10-26T00:26:32.927Z,793.33
2017-10-26T00:26:37.010Z,793.34
2017-10-26T00:26:40.690Z,793.3
2017-10-26T00:26:44.796Z,793.33
2017-10-26T00:26:48.880Z,793.37
2017-10-26T00:26:52.961Z,793.37
2017-10-26T00:26:57.047Z,793.39
2017-10-26T00:27:01.257Z,793.42
2017-10-26T00:27:05.693Z,793.4
2017-10-26T00:27:09.771Z,793.42
2017-10-26T00:27:13.854Z,793.42
2017-10-26T00:27:17.804Z,793.46
2017-10-26T00:27:22.027Z,793.47
2017-10-26T00:27:26.112Z,793.47
2017-10-26T00:27:30.197Z,793.46
2017-10-26T00:27:34.282Z,793.45
2017-10-26T00:27:38.238Z,793.47
2017-10-26T00:27:42.585Z,793.49
2017-10-26T00:27:46.531Z,793.53
2017-10-26T00:27:50.740Z,793.52
2017-10-26T00:27:54.972Z,793.51
2017-10-26T00:27:59.047Z,793.54
2017-10-26T00:28:03.251Z,793.58
2017-10-26T00:28:07.079Z,793.54
2017-10-26T00:28:11.416Z,793.56
2017-10-26T00:28:15.629Z,793.57
2017-10-26T00:28:19.865Z,793.61
2017-10-26T00:28:23.952Z,793.6
2017-10-26T00:28:28.037Z,793.58
2017-10-26T00:28:32.253Z,793.59
2017-10-26T00:28:36.196Z,793.61
2017-10-26T00:28:40.405Z,793.61
2017-10-26T00:28:44.632Z,793.6
2017-10-26T00:28:48.711Z,793.65
2017-10-26T00:28:52.796Z,793.66
2017-10-26T00:28:56.875Z,793.68
2017-10-26T00:29:00.702Z,793.69
2017-10-26T00:29:04.669Z,793.7
2017-10-26T00:29:08.879Z,793.67
2017-10-26T00:29:12.962Z,793.72
2017-10-26T00:29:16.943Z,793.7
2017-10-26T00:29:21.023Z,793.71
2017-10-26T00:29:25.256Z,793.73
2017-10-26T00:29:29.341Z,793.76
2017-10-26T00:29:33.417Z,793.74
2017-10-26T00:29:37.503Z,793.77
2017-10-26T00:29:41.586Z,793.79
2017-10-26T00:29:45.936Z,793.76
2017-10-26T00:29:50.012Z,793.73
2017-10-26T00:29:54.237Z,793.79
2017-10-26T00:29:58.447Z,793.8
2017-10-26T00:30:02.395Z,793.79
2017-10-26T00:30:06.361Z,793.81
2017-10-26T00:30:10.597Z,793.79
2017-10-26T00:30:15.068Z,793.8
2017-10-26T00:30:19.294Z,793.78
2017-10-26T00:30:23.367Z,793.81
2017-10-26T00:30:27.467Z,793.83
2017-10-26T00:30:31.811Z,793.85
2017-10-26T00:30:36.329Z,793.89
2017-10-26T00:30:40.540Z,793.87
2017-10-26T00:30:44.883Z,793.85
2017-10-26T00:30:49.123Z,793.87
2017-10-26T00:30:53.341Z,793.91
2017-10-26T00:30:57.302Z,793.88
2017-10-26T00:31:01.255Z,793.88
2017-10-26T00:31:05.205Z,793.91
2017-10-26T00:31:09.432Z,793.91
2017-10-26T00:31:13.513Z,793.9
2017-10-26T00:31:17.722Z,793.92
2017-10-26T00:31:21.672Z,793.91
2017-10-26T00:31:25.481Z,793.94
2017-10-26T00:31:29.430Z,793.94
2017-10-26T00:31:33.520Z,793.98
2017-10-26T00:31:37.610Z,793.96
2017-10-26T00:31:41.821Z,793.98
2017-10-26T00:31:45.905Z,793.98
2017-10-26T00:31:49.999Z,794
2017-10-26T00:31:54.341Z,794.01
2017-10-26T00:31:58.423Z,794.02
2017-10-26T00:32:02.820Z,794.02
2017-10-26T00:32:06.920Z,793.95
2017-10-26T00:32:11.143Z,793.95
2017-10-26T00:32:15.359Z,794.04
2017-10-26T00:32:19.304Z,793.99
2017-10-26T00:32:23.659Z,794
2017-10-26T00:32:27.742Z,794
2017-10-26T00:32:31.560Z,794.06
2017-10-26T00:32:35.646Z,794.04
2017-10-26T00:32:39.733Z,794.04
2017-10-26T00:32:43.809Z,794.06
2017-10-26T00:32:47.762Z,794.05
2017-10-26T00:32:51.707Z,794.08
2017-10-26T00:32:55.786Z,794.06
2017-10-26T00:32:59.999Z,794.04
2017-10-26T00:33:04.084Z,794.1
2017-10-26T00:33:08.428Z,794.08
2017-10-26T00:33:12.374Z,794.08
2017-10-26T00:33:16.449Z,794.09
2017-10-26T00:33:20.786Z,794.12
2017-10-26T00:33:24.996Z,794.1
2017-10-26T00:33:29.471Z,794.1
2017-10-26T00:33:33.692Z,794.15
2017-10-26T00:33:37.903Z,794.14
2017-10-26T00:33:41.986Z,794.1
2017-10-26T00:33:46.226Z,794.16
2017-10-26T00:33:50.179Z,794.13
2017-10-26T00:33:54.382Z,794.15
2017-10-26T00:33:58.340Z,794.16
2017-10-26T00:34:02.287Z,794.18
2017-10-26T00:34:06.246Z,794.18
2017-10-26T00:34:10.329Z,794.09
2017-10-26T00:34:14.547Z,794.13
2017-10-26T00:34:18.894Z,794.12
2017-10-26T00:34:22.870Z,794.22
2017-10-26T00:34:27.092Z,794.19
2017-10-26T00:34:31.308Z,794.25
2017-10-26T00:34:35.254Z,794.21
2017-10-26T00:34:39.229Z,794.24
2017-10-26T00:34:43.170Z,794.24
2017-10-26T00:34:47.380Z,794.27
2017-10-26T00:34:51.464Z,794.27
2017-10-26T00:34:55.550Z,794.27
2017-10-26T00:34:59.495Z,794.25
2017-10-26T00:35:03.905Z,794.3
2017-10-26T00:35:07.856Z,794.27
2017-10-26T00:35:12.072Z,794.24
2017-10-26T00:35:16.420Z,794.27
2017-10-26T00:35:20.630Z,794.3
2017-10-26T00:35:24.591Z,794.31
2017-10-26T00:35:28.281Z,794.29
2017-10-26T00:35:32.624Z,794.31
2017-10-26T00:35:36.966Z,794.33
2017-10-26T00:35:41.048Z,794.27
2017-10-26T00:35:45.412Z,794.31
2017-10-26T00:35:49.501Z,794.33
2017-10-26T00:35:53.591Z,794.32
2017-10-26T00:35:57.682Z,794.33
2017-10-26T00:36:02.148Z,794.32
2017-10-26T00:36:06.380Z,794.32
2017-10-26T00:36:10.729Z,794.35
2017-10-26T00:36:14.806Z,794.34
2017-10-26T00:36:19.029Z,794.34
2017-10-26T00:36:23.239Z,794.35
2017-10-26T00:36:27.706Z,794.35
2017-10-26T00:36:31.785Z,794.32
2017-10-26T00:36:35.741Z,794.31
2017-10-26T00:36:39.829Z,794.36
2017-10-26T00:36:44.172Z,794.38
2017-10-26T00:36:48.247Z,794.35
2017-10-26T00:36:52.331Z,794.38
2017-10-26T00:36:56.407Z,794.37
2017-10-26T00:37:00.752Z,794.4
2017-10-26T00:37:05.497Z,794.37
2017-10-26T00:37:09.707Z,794.4
2017-10-26T00:37:13.670Z,794.4
2017-10-26T00:37:17.886Z,794.4
2017-10-26T00:37:21.964Z,794.4
2017-10-26T00:37:26.188Z,794.42
2017-10-26T00:37:30.139Z,794.41
2017-10-26T00:37:34.485Z,794.43
2017-10-26T00:37:38.700Z,794.41
2017-10-26T00:37:43.050Z,794.42
2017-10-26T00:37:47.267Z,794.43
2017-10-26T00:37:51.472Z,794.43
2017-10-26T00:37:55.556Z,794.42
2017-10-26T00:37:59.507Z,794.4
2017-10-26T00:38:03.927Z,794.46
2017-10-26T00:38:08.026Z,794.44
2017-10-26T00:38:11.972Z,794.5
2017-10-26T00:38:16.182Z,794.47
2017-10-26T00:38:20.538Z,794.43
2017-10-26T00:38:24.751Z,794.47
2017-10-26T00:38:29.228Z,794.47
2017-10-26T00:38:33.319Z,794.49
2017-10-26T00:38:37.396Z,794.48
2017-10-26T00:38:41.612Z,794.47
2017-10-26T00:38:45.826Z,794.49
2017-10-26T00:38:49.779Z,794.44
2017-10-26T00:38:54.117Z,794.46
2017-10-26T00:38:58.209Z,794.46
2017-10-26T00:39:02.440Z,794.52
2017-10-26T00:39:06.663Z,794.54
2017-10-26T00:39:10.876Z,794.55
2017-10-26T00:39:15.232Z,794.54
2017-10-26T00:39:19.579Z,794.51
2017-10-26T00:39:23.663Z,794.56
2017-10-26T00:39:27.742Z,794.54
2017-10-26T00:39:31.823Z,794.52
2017-10-26T00:39:36.176Z,794.53
2017-10-26T00:39:40.256Z,794.53
2017-10-26T00:39:44.071Z,794.57
2017-10-26T00:39:48.283Z,794.56
2017-10-26T00:39:52.492Z,794.56
2017-10-26T00:39:56.701Z,794.57
2017-10-26T00:40:00.649Z,794.59
2017-10-26T00:40:04.724Z,794.53
2017-10-26T00:40:08.674Z,794.6
2017-10-26T00:40:12.910Z,794.6
2017-10-26T00:40:16.867Z,794.6
2017-10-26T00:40:21.082Z,794.59
2017-10-26T00:40:25.430Z,794.59
2017-10-26T00:40:29.938Z,794.61
2017-10-26T00:40:34.172Z,794.56
2017-10-26T00:40:37.993Z,794.58
2017-10-26T00:40:41.957Z,794.57
2017-10-26T00:40:45.775Z,794.63
2017-10-26T00:40:50.127Z,794.63
2017-10-26T00:40:54.341Z,794.62
2017-10-26T00:40:58.571Z,794.65
2017-10-26T00:41:02.516Z,794.63
2017-10-26T00:41:06.730Z,794.66
2017-10-26T00:41:10.941Z,794.63
2017-10-26T00:41:14.893Z,794.63
2017-10-26T00:41:18.757Z,794.67
2017-10-26T00:41:23.106Z,794.67
2017-10-26T00:41:27.453Z,794.69
2017-10-26T00:41:31.540Z,794.67
2017-10-26T00:41:35.493Z,794.67
2017-10-26T00:41:39.705Z,794.67
2017-10-26T00:41:43.653Z,794.68
2017-10-26T00:41:47.466Z,794.7
2017-10-26T00:41:51.414Z,794.7
2017-10-26T00:41:55.493Z,794.68
2017-10-26T00:41:59.580Z,794.67
2017-10-26T00:42:03.843Z,794.68
2017-10-26T00:42:08.044Z,794.68
2017-10-26T00:42:12.264Z,794.69
2017-10-26T00:42:16.473Z,794.71
2017-10-26T00:42:20.551Z,794.7
2017-10-26T00:42:24.774Z,794.72
2017-10-26T00:42:28.740Z,794.72
2017-10-26T00:42:32.821Z,794.7
2017-10-26T00:42:37.176Z,794.67
2017-10-26T00:42:41.001Z,794.7
2017-10-26T00:42:45.212Z,794.72
2017-10-26T00:42:49.296Z,794.74
2017-10-26T00:42:53.380Z,794.73
2017-10-26T00:42:57.337Z,794.75
2017-10-26T00:43:01.764Z,794.74
2017-10-26T00:43:05.581Z,794.77
2017-10-26T00:43:09.529Z,794.75
2017-10-26T00:43:13.749Z,794.79
2017-10-26T00:43:17.962Z,794.76
2017-10-26T00:43:22.170Z,794.77
2017-10-26T00:43:25.989Z,794.75
2017-10-26T00:43:29.970Z,794.77
2017-10-26T00:43:34.049Z,794.78
2017-10-26T00:43:38.008Z,794.75
2017-10-26T00:43:42.488Z,794.79
2017-10-26T00:43:46.837Z,794.79
2017-10-26T00:43:50.928Z,794.8
2017-10-26T00:43:55.145Z,794.79
2017-10-26T00:43:59.224Z,794.78
2017-10-26T00:44:03.300Z,794.79
2017-10-26T00:44:07.513Z,794.79
2017-10-26T00:44:11.590Z,794.79
2017-10-26T00:44:15.817Z,794.78
2017-10-26T00:44:20.164Z,794.8
2017-10-26T00:44:24.370Z,794.81
2017-10-26T00:44:28.317Z,794.8
2017-10-26T00:44:32.416Z,794.73
2017-10-26T00:44:36.637Z,794.81
2017-10-26T00:44:40.590Z,794.79
2017-10-26T00:44:44.673Z,794.83
2017-10-26T00:44:49.012Z,794.78
2017-10-26T00:44:53.096Z,794.81
2017-10-26T00:44:57.045Z,794.83
2017-10-26T00:45:00.863Z,794.82
2017-10-26T00:45:05.007Z,794.82
2017-10-26T00:45:09.215Z,794.78
2017-10-26T00:45:13.428Z,794.8
2017-10-26T00:45:17.378Z,794.86
2017-10-26T00:45:21.454Z,794.84
2017-10-26T00:45:25.796Z,794.87
2017-10-26T00:45:29.751Z,794.84
2017-10-26T00:45:33.977Z,794.86
2017-10-26T00:45:37.930Z,794.87
2017-10-26T00:45:42.403Z,794.88
2017-10-26T00:45:46.482Z,794.9
2017-10-26T00:45:50.833Z,794.87
2017-10-26T00:45:55.038Z,794.87
2017-10-26T00:45:58.989Z,794.86
2017-10-26T00:46:03.390Z,794.85
2017-10-26T00:46:07.342Z,794.85
2017-10-26T00:46:11.295Z,794.88
2017-10-26T00:46:15.117Z,794.87
2017-10-26T00:46:19.187Z,794.87
2017-10-26T00:46:23.273Z,794.89
2017-10-26T00:46:27.227Z,794.85
2017-10-26T00:46:31.176Z,794.87
2017-10-26T00:46:35.382Z,794.89
2017-10-26T00:46:39.463Z,794.85
2017-10-26T00:46:43.430Z,794.87
2017-10-26T00:46:47.506Z,794.87
2017-10-26T00:46:51.587Z,794.93
2017-10-26T00:46:55.935Z,794.89
2017-10-26T00:47:00.013Z,794.9
2017-10-26T00:47:04.536Z,794.92
2017-10-26T00:47:08.746Z,794.9
2017-10-26T00:47:12.561Z,794.91
2017-10-26T00:47:16.778Z,794.9
2017-10-26T00:47:21.123Z,794.92
2017-10-26T00:47:25.198Z,794.95
2017-10-26T00:47:29.157Z,794.9
2017-10-26T00:47:33.242Z,794.9
2017-10-26T00:47:37.317Z,794.9
2017-10-26T00:47:41.525Z,794.91
2017-10-26T00:47:45.344Z,794.92
2017-10-26T00:47:49.559Z,794.95
2017-10-26T00:47:53.508Z,794.95
2017-10-26T00:47:57.472Z,794.94
2017-10-26T00:48:01.545Z,794.96
2017-10-26T00:48:05.812Z,794.96
2017-10-26T00:48:10.161Z,794.97
2017-10-26T00:48:13.975Z,794.95
2017-10-26T00:48:17.795Z,794.96
2017-10-26T00:48:21.881Z,794.95
2017-10-26T00:48:25.955Z,794.98
2017-10-26T00:48:30.294Z,794.98
2017-10-26T00:48:34.385Z,795
2017-10-26T00:48:38.328Z,794.98
2017-10-26T00:48:42.672Z,794.94
2017-10-26T00:48:46.617Z,795.02
2017-10-26T00:48:50.969Z,794.99
2017-10-26T00:48:54.786Z,795.02
2017-10-26T00:48:59.124Z,795
2017-10-26T00:49:03.042Z,794.95
2017-10-26T00:49:07.118Z,794.96
2017-10-26T00:49:11.203Z,794.98
2017-10-26T00:49:15.416Z,795.03
2017-10-26T00:49:19.499Z,795.02
2017-10-26T00:49:23.454Z,794.99
2017-10-26T00:49:27.410Z,795
2017-10-26T00:49:31.745Z,794.99
2017-10-26T00:49:35.683Z,795.02
2017-10-26T00:49:40.039Z,795
2017-10-26T00:49:44.272Z,794.99
2017-10-26T00:49:48.488Z,794.97
2017-10-26T00:49:52.430Z,795.03
2017-10-26T00:49:56.370Z,795.03
2017-10-26T00:50:00.583Z,795.04
2017-10-26T00:50:04.531Z,795.01
2017-10-26T00:50:08.629Z,795.05
2017-10-26T00:50:12.840Z,795.04
2017-10-26T00:50:17.179Z,795.05
2017-10-26T00:50:21.267Z,795.03
2017-10-26T00:50:25.218Z,795.06
2017-10-26T00:50:28.900Z,795.06
2017-10-26T00:50:33.254Z,795.07
2017-10-26T00:50:37.328Z,795.07
2017-10-26T00:50:41.535Z,795.08
2017-10-26T00:50:45.358Z,795.13
2017-10-26T00:50:49.569Z,795.09
2017-10-26T00:50:53.647Z,795.09
2017-10-26T00:50:57.596Z,795.09
2017-10-26T00:51:01.913Z,795.11
2017-10-26T00:51:05.724Z,795.11
2017-10-26T00:51:09.943Z,795.08
2017-10-26T00:51:14.155Z,795.1
2017-10-26T00:51:18.233Z,795.09
2017-10-26T00:51:22.318Z,795.13
2017-10-26T00:51:26.274Z,795.14
2017-10-26T00:51:30.486Z,795.15
2017-10-26T00:51:34.698Z,795.16
2017-10-26T00:51:38.907Z,795.16
2017-10-26T00:51:43.251Z,795.14
2017-10-26T00:51:47.336Z,795.14